Canapolis, Brazil
Current Conditions -  °F | °C
As of 6:00 PM on Friday 31 Oct 2014 (Local Time) from SBMK Reporting Station
Broken Clouds Broken Clouds  
Wind Chill: 73°   Ceiling: 10000
Heat Index: 73°   Visibility: 6mi
Dew Point: 68°   Wind: 13mph
Humidity: 83%   Direction: 300°WNW
Pressure: 29.97"   Gusts: NA
Location:  13.07°S, 44.2°W
Report Text: SBMK 312100Z 30011KT 9999 FEW048 SCT050 BKN100 23/20 Q1015
Loading
Personal Weather Stations






























Interactive Weather Map
Tropical Storm Tracking
New forecast layout! Learn more

10-Day Weather Forecast

Advertisements
Track Severe Weather on mobile